CPX237 Details

Departure: March Air Reserve Base (KRIV)
Arrival: Washington Dulles International Airport (KIAD) at N/A
Route: TRM PKE J78 DRK J96 GUP J8 FTI MMB PER SGF J98 FAM J78 HVQ GIBBZ2
Notes:


Current Weather Information
KRIV 191558Z AUTO 00000KT 6SM BR CLR 20/19 A2998 RMK AO2 SLP142 T02000192
KIAD 191552Z VRB04KT 10SM FEW140 SCT250 32/21 A3002 RMK AO2 SLP163 T03170206